sensor_id;sensor_type;location;lat;lon;timestamp;P1;durP1;ratioP1;P2;durP2;ratioP2
4963;SDS011;2497;47.410;9.740;2023-06-22T00:02:19;13.20;;;4.80;;
4963;SDS011;2497;47.410;9.740;2023-06-22T00:04:54;14.33;;;4.60;;
4963;SDS011;2497;47.410;9.740;2023-06-22T00:07:23;11.17;;;4.40;;
4963;SDS011;2497;47.410;9.740;2023-06-22T00:09:50;15.10;;;4.93;;
4963;SDS011;2497;47.410;9.740;2023-06-22T00:12:23;8.10;;;4.33;;
4963;SDS011;2497;47.410;9.740;2023-06-22T00:14:59;11.10;;;4.70;;
4963;SDS011;2497;47.410;9.740;2023-06-22T00:17:32;12.03;;;4.83;;
4963;SDS011;2497;47.410;9.740;2023-06-22T00:19:59;13.50;;;4.80;;
4963;SDS011;2497;47.410;9.740;2023-06-22T00:22:38;19.40;;;5.53;;
4963;SDS011;2497;47.410;9.740;2023-06-22T00:25:11;11.07;;;4.30;;
4963;SDS011;2497;47.410;9.740;2023-06-22T00:30:36;10.27;;;4.67;;
4963;SDS011;2497;47.410;9.740;2023-06-22T00:33:19;9.23;;;4.40;;
4963;SDS011;2497;47.410;9.740;2023-06-22T00:35:48;9.23;;;5.00;;
4963;SDS011;2497;47.410;9.740;2023-06-22T00:38:20;14.70;;;5.20;;
4963;SDS011;2497;47.410;9.740;2023-06-22T00:40:49;19.07;;;4.80;;
4963;SDS011;2497;47.410;9.740;2023-06-22T00:43:17;12.73;;;4.43;;
4963;SDS011;2497;47.410;9.740;2023-06-22T00:45:45;11.43;;;4.50;;
4963;SDS011;2497;47.410;9.740;2023-06-22T00:48:13;12.17;;;4.07;;
4963;SDS011;2497;47.410;9.740;2023-06-22T00:50:46;14.80;;;4.83;;
4963;SDS011;2497;47.410;9.740;2023-06-22T00:53:21;6.57;;;3.80;;
4963;SDS011;2497;47.410;9.740;2023-06-22T00:56:07;18.30;;;5.00;;
4963;SDS011;2497;47.410;9.740;2023-06-22T00:58:44;8.60;;;4.23;;
4963;SDS011;2497;47.410;9.740;2023-06-22T01:01:13;11.97;;;4.43;;
4963;SDS011;2497;47.410;9.740;2023-06-22T01:04:00;18.97;;;4.70;;
4963;SDS011;2497;47.410;9.740;2023-06-22T01:06:41;17.50;;;4.90;;
4963;SDS011;2497;47.410;9.740;2023-06-22T01:09:21;11.47;;;4.87;;
4963;SDS011;2497;47.410;9.740;2023-06-22T01:12:24;9.07;;;4.20;;
4963;SDS011;2497;47.410;9.740;2023-06-22T01:14:47;8.97;;;4.53;;
4963;SDS011;2497;47.410;9.740;2023-06-22T01:17:23;17.00;;;5.60;;
4963;SDS011;2497;47.410;9.740;2023-06-22T01:19:58;16.10;;;4.57;;
4963;SDS011;2497;47.410;9.740;2023-06-22T01:22:41;12.70;;;4.83;;
4963;SDS011;2497;47.410;9.740;2023-06-22T01:25:19;19.27;;;4.70;;
4963;SDS011;2497;47.410;9.740;2023-06-22T01:27:56;10.73;;;4.43;;
4963;SDS011;2497;47.410;9.740;2023-06-22T01:30:33;15.70;;;5.33;;
4963;SDS011;2497;47.410;9.740;2023-06-22T01:33:00;9.30;;;4.40;;
4963;SDS011;2497;47.410;9.740;2023-06-22T01:35:32;11.07;;;5.23;;
4963;SDS011;2497;47.410;9.740;2023-06-22T01:38:00;15.10;;;5.10;;
4963;SDS011;2497;47.410;9.740;2023-06-22T01:40:28;12.60;;;4.70;;
4963;SDS011;2497;47.410;9.740;2023-06-22T01:42:58;9.90;;;4.43;;
4963;SDS011;2497;47.410;9.740;2023-06-22T01:45:31;9.30;;;4.43;;
4963;SDS011;2497;47.410;9.740;2023-06-22T01:47:58;12.50;;;4.73;;
4963;SDS011;2497;47.410;9.740;2023-06-22T01:50:26;21.67;;;4.80;;
4963;SDS011;2497;47.410;9.740;2023-06-22T01:52:54;10.83;;;4.47;;
4963;SDS011;2497;47.410;9.740;2023-06-22T01:55:21;13.27;;;5.00;;
4963;SDS011;2497;47.410;9.740;2023-06-22T01:57:50;11.13;;;4.67;;
4963;SDS011;2497;47.410;9.740;2023-06-22T02:00:24;14.03;;;5.20;;
4963;SDS011;2497;47.410;9.740;2023-06-22T02:03:01;12.10;;;4.60;;
4963;SDS011;2497;47.410;9.740;2023-06-22T02:05:36;8.77;;;5.03;;
4963;SDS011;2497;47.410;9.740;2023-06-22T02:08:13;15.77;;;5.33;;
4963;SDS011;2497;47.410;9.740;2023-06-22T02:10:46;9.30;;;5.63;;
4963;SDS011;2497;47.410;9.740;2023-06-22T02:13:21;14.47;;;6.10;;
4963;SDS011;2497;47.410;9.740;2023-06-22T02:15:50;9.37;;;5.47;;
4963;SDS011;2497;47.410;9.740;2023-06-22T02:18:22;12.93;;;5.00;;
4963;SDS011;2497;47.410;9.740;2023-06-22T02:20:50;19.00;;;6.33;;
4963;SDS011;2497;47.410;9.740;2023-06-22T02:23:17;13.63;;;5.50;;
4963;SDS011;2497;47.410;9.740;2023-06-22T02:25:45;18.87;;;6.27;;
4963;SDS011;2497;47.410;9.740;2023-06-22T02:28:12;10.63;;;5.10;;
4963;SDS011;2497;47.410;9.740;2023-06-22T02:30:39;11.10;;;6.03;;
4963;SDS011;2497;47.410;9.740;2023-06-22T02:33:06;12.83;;;5.60;;
4963;SDS011;2497;47.410;9.740;2023-06-22T02:35:36;11.30;;;5.70;;
4963;SDS011;2497;47.410;9.740;2023-06-22T02:38:07;15.77;;;5.97;;
4963;SDS011;2497;47.410;9.740;2023-06-22T02:40:36;13.40;;;5.70;;
4963;SDS011;2497;47.410;9.740;2023-06-22T02:43:03;20.37;;;6.03;;
4963;SDS011;2497;47.410;9.740;2023-06-22T02:45:32;15.20;;;6.33;;
4963;SDS011;2497;47.410;9.740;2023-06-22T02:48:06;10.97;;;5.40;;
4963;SDS011;2497;47.410;9.740;2023-06-22T02:50:33;20.37;;;6.07;;
4963;SDS011;2497;47.410;9.740;2023-06-22T02:53:01;15.13;;;6.67;;
4963;SDS011;2497;47.410;9.740;2023-06-22T02:55:36;18.03;;;5.60;;
4963;SDS011;2497;47.410;9.740;2023-06-22T02:58:04;13.93;;;5.90;;
4963;SDS011;2497;47.410;9.740;2023-06-22T03:00:32;11.37;;;6.13;;
4963;SDS011;2497;47.410;9.740;2023-06-22T03:03:01;14.00;;;5.60;;
4963;SDS011;2497;47.410;9.740;2023-06-22T03:05:28;14.03;;;6.47;;
4963;SDS011;2497;47.410;9.740;2023-06-22T03:08:07;14.23;;;6.70;;
4963;SDS011;2497;47.410;9.740;2023-06-22T03:10:37;15.60;;;6.67;;
4963;SDS011;2497;47.410;9.740;2023-06-22T03:13:04;13.57;;;7.20;;
4963;SDS011;2497;47.410;9.740;2023-06-22T03:15:33;28.47;;;6.90;;
4963;SDS011;2497;47.410;9.740;2023-06-22T03:18:00;14.63;;;5.90;;
4963;SDS011;2497;47.410;9.740;2023-06-22T03:20:27;11.10;;;5.40;;
4963;SDS011;2497;47.410;9.740;2023-06-22T03:23:00;12.57;;;5.57;;
4963;SDS011;2497;47.410;9.740;2023-06-22T03:25:30;15.87;;;6.50;;
4963;SDS011;2497;47.410;9.740;2023-06-22T03:27:58;14.93;;;6.00;;
4963;SDS011;2497;47.410;9.740;2023-06-22T03:30:26;19.73;;;6.33;;
4963;SDS011;2497;47.410;9.740;2023-06-22T03:32:55;16.77;;;6.30;;
4963;SDS011;2497;47.410;9.740;2023-06-22T03:35:28;11.70;;;5.60;;
4963;SDS011;2497;47.410;9.740;2023-06-22T03:37:57;11.77;;;6.37;;
4963;SDS011;2497;47.410;9.740;2023-06-22T03:40:25;18.53;;;6.07;;
4963;SDS011;2497;47.410;9.740;2023-06-22T03:42:56;17.70;;;6.33;;
4963;SDS011;2497;47.410;9.740;2023-06-22T03:45:25;13.67;;;6.67;;
4963;SDS011;2497;47.410;9.740;2023-06-22T03:47:52;10.20;;;6.20;;
4963;SDS011;2497;47.410;9.740;2023-06-22T03:50:20;11.33;;;6.80;;
4963;SDS011;2497;47.410;9.740;2023-06-22T03:52:47;10.50;;;5.30;;
4963;SDS011;2497;47.410;9.740;2023-06-22T03:55:20;11.70;;;4.90;;
4963;SDS011;2497;47.410;9.740;2023-06-22T03:57:53;13.83;;;5.73;;
4963;SDS011;2497;47.410;9.740;2023-06-22T04:00:32;19.13;;;5.73;;
4963;SDS011;2497;47.410;9.740;2023-06-22T04:03:00;10.37;;;5.17;;
4963;SDS011;2497;47.410;9.740;2023-06-22T04:05:32;11.67;;;5.20;;
4963;SDS011;2497;47.410;9.740;2023-06-22T04:08:01;11.23;;;5.50;;
4963;SDS011;2497;47.410;9.740;2023-06-22T04:10:29;14.60;;;5.40;;
4963;SDS011;2497;47.410;9.740;2023-06-22T04:12:59;11.73;;;5.20;;
4963;SDS011;2497;47.410;9.740;2023-06-22T04:15:28;13.63;;;5.80;;
4963;SDS011;2497;47.410;9.740;2023-06-22T04:17:57;16.90;;;5.37;;
4963;SDS011;2497;47.410;9.740;2023-06-22T04:20:24;16.60;;;4.87;;
4963;SDS011;2497;47.410;9.740;2023-06-22T04:22:52;17.87;;;5.53;;
4963;SDS011;2497;47.410;9.740;2023-06-22T04:25:24;14.30;;;5.00;;
4963;SDS011;2497;47.410;9.740;2023-06-22T04:27:51;13.93;;;4.60;;
4963;SDS011;2497;47.410;9.740;2023-06-22T04:30:20;13.47;;;5.30;;
4963;SDS011;2497;47.410;9.740;2023-06-22T04:32:47;16.73;;;5.40;;
4963;SDS011;2497;47.410;9.740;2023-06-22T04:35:22;16.00;;;5.30;;
4963;SDS011;2497;47.410;9.740;2023-06-22T04:37:50;12.23;;;5.33;;
4963;SDS011;2497;47.410;9.740;2023-06-22T04:40:19;8.50;;;5.63;;
4963;SDS011;2497;47.410;9.740;2023-06-22T04:42:47;13.50;;;5.80;;
4963;SDS011;2497;47.410;9.740;2023-06-22T04:45:18;11.37;;;5.90;;
4963;SDS011;2497;47.410;9.740;2023-06-22T04:47:47;38.20;;;9.73;;
4963;SDS011;2497;47.410;9.740;2023-06-22T04:50:14;14.30;;;6.00;;
4963;SDS011;2497;47.410;9.740;2023-06-22T04:52:42;18.00;;;6.53;;
4963;SDS011;2497;47.410;9.740;2023-06-22T04:55:10;17.03;;;6.53;;
4963;SDS011;2497;47.410;9.740;2023-06-22T04:57:37;17.67;;;5.90;;
4963;SDS011;2497;47.410;9.740;2023-06-22T05:00:05;13.70;;;5.70;;
4963;SDS011;2497;47.410;9.740;2023-06-22T05:02:43;14.40;;;6.00;;
4963;SDS011;2497;47.410;9.740;2023-06-22T05:05:11;11.57;;;6.77;;
4963;SDS011;2497;47.410;9.740;2023-06-22T05:07:42;14.80;;;6.80;;
4963;SDS011;2497;47.410;9.740;2023-06-22T05:10:10;17.13;;;6.70;;
4963;SDS011;2497;47.410;9.740;2023-06-22T05:12:41;15.27;;;6.40;;
4963;SDS011;2497;47.410;9.740;2023-06-22T05:15:10;14.10;;;7.70;;
4963;SDS011;2497;47.410;9.740;2023-06-22T05:17:37;19.80;;;7.00;;
4963;SDS011;2497;47.410;9.740;2023-06-22T05:20:09;16.13;;;7.80;;
4963;SDS011;2497;47.410;9.740;2023-06-22T05:22:37;22.20;;;7.13;;
4963;SDS011;2497;47.410;9.740;2023-06-22T05:25:08;16.40;;;7.17;;
4963;SDS011;2497;47.410;9.740;2023-06-22T05:27:37;19.20;;;7.70;;
4963;SDS011;2497;47.410;9.740;2023-06-22T05:30:05;14.20;;;7.73;;
4963;SDS011;2497;47.410;9.740;2023-06-22T05:32:33;16.67;;;7.77;;
4963;SDS011;2497;47.410;9.740;2023-06-22T05:35:00;15.23;;;7.27;;
4963;SDS011;2497;47.410;9.740;2023-06-22T05:37:29;20.27;;;7.53;;
4963;SDS011;2497;47.410;9.740;2023-06-22T05:39:56;16.47;;;6.80;;
4963;SDS011;2497;47.410;9.740;2023-06-22T05:42:23;17.53;;;6.80;;
4963;SDS011;2497;47.410;9.740;2023-06-22T05:44:51;21.57;;;8.17;;
4963;SDS011;2497;47.410;9.740;2023-06-22T05:47:19;19.73;;;7.63;;
4963;SDS011;2497;47.410;9.740;2023-06-22T05:49:47;18.90;;;7.70;;
4963;SDS011;2497;47.410;9.740;2023-06-22T05:52:18;19.30;;;7.87;;
4963;SDS011;2497;47.410;9.740;2023-06-22T05:54:47;15.43;;;6.80;;
4963;SDS011;2497;47.410;9.740;2023-06-22T05:57:16;14.40;;;6.00;;
4963;SDS011;2497;47.410;9.740;2023-06-22T05:59:43;21.60;;;7.20;;
4963;SDS011;2497;47.410;9.740;2023-06-22T06:02:10;18.93;;;6.67;;
4963;SDS011;2497;47.410;9.740;2023-06-22T06:04:37;17.47;;;7.40;;
4963;SDS011;2497;47.410;9.740;2023-06-22T06:07:04;16.43;;;6.30;;
4963;SDS011;2497;47.410;9.740;2023-06-22T06:09:33;21.10;;;7.30;;
4963;SDS011;2497;47.410;9.740;2023-06-22T06:12:04;16.83;;;7.43;;
4963;SDS011;2497;47.410;9.740;2023-06-22T06:14:32;20.30;;;7.50;;
4963;SDS011;2497;47.410;9.740;2023-06-22T06:17:01;18.87;;;7.27;;
4963;SDS011;2497;47.410;9.740;2023-06-22T06:19:28;16.97;;;6.93;;
4963;SDS011;2497;47.410;9.740;2023-06-22T06:21:55;14.23;;;7.87;;
4963;SDS011;2497;47.410;9.740;2023-06-22T06:24:22;13.70;;;6.53;;
4963;SDS011;2497;47.410;9.740;2023-06-22T06:26:49;16.00;;;7.50;;
4963;SDS011;2497;47.410;9.740;2023-06-22T06:29:17;28.73;;;8.50;;
4963;SDS011;2497;47.410;9.740;2023-06-22T06:31:44;22.77;;;8.30;;
4963;SDS011;2497;47.410;9.740;2023-06-22T06:34:13;16.57;;;7.20;;
4963;SDS011;2497;47.410;9.740;2023-06-22T06:36:41;12.63;;;6.67;;
4963;SDS011;2497;47.410;9.740;2023-06-22T06:39:09;17.77;;;7.30;;
4963;SDS011;2497;47.410;9.740;2023-06-22T06:41:38;17.00;;;7.27;;
4963;SDS011;2497;47.410;9.740;2023-06-22T06:44:11;17.57;;;7.40;;
4963;SDS011;2497;47.410;9.740;2023-06-22T06:46:40;24.00;;;6.90;;
4963;SDS011;2497;47.410;9.740;2023-06-22T06:49:08;17.83;;;6.70;;
4963;SDS011;2497;47.410;9.740;2023-06-22T06:51:42;17.13;;;6.93;;
4963;SDS011;2497;47.410;9.740;2023-06-22T06:54:20;14.47;;;6.00;;
4963;SDS011;2497;47.410;9.740;2023-06-22T06:56:48;15.27;;;6.30;;
4963;SDS011;2497;47.410;9.740;2023-06-22T06:59:22;12.27;;;6.43;;
4963;SDS011;2497;47.410;9.740;2023-06-22T07:01:59;13.37;;;6.10;;
4963;SDS011;2497;47.410;9.740;2023-06-22T07:04:26;10.37;;;6.00;;
4963;SDS011;2497;47.410;9.740;2023-06-22T07:07:00;12.87;;;6.47;;
4963;SDS011;2497;47.410;9.740;2023-06-22T07:09:30;17.17;;;6.13;;
4963;SDS011;2497;47.410;9.740;2023-06-22T07:11:59;18.53;;;6.67;;
4963;SDS011;2497;47.410;9.740;2023-06-22T07:14:40;18.90;;;6.90;;
4963;SDS011;2497;47.410;9.740;2023-06-22T07:17:10;15.57;;;7.60;;
4963;SDS011;2497;47.410;9.740;2023-06-22T07:19:39;18.43;;;7.87;;
4963;SDS011;2497;47.410;9.740;2023-06-22T07:22:07;15.37;;;6.30;;
4963;SDS011;2497;47.410;9.740;2023-06-22T07:24:36;14.97;;;6.70;;
4963;SDS011;2497;47.410;9.740;2023-06-22T07:27:11;15.10;;;6.40;;
4963;SDS011;2497;47.410;9.740;2023-06-22T07:29:41;21.53;;;7.57;;
4963;SDS011;2497;47.410;9.740;2023-06-22T07:32:10;16.33;;;7.07;;
4963;SDS011;2497;47.410;9.740;2023-06-22T07:34:39;12.73;;;7.30;;
4963;SDS011;2497;47.410;9.740;2023-06-22T07:37:08;13.40;;;7.00;;
4963;SDS011;2497;47.410;9.740;2023-06-22T07:39:35;20.40;;;7.17;;
4963;SDS011;2497;47.410;9.740;2023-06-22T07:42:10;16.13;;;7.03;;
4963;SDS011;2497;47.410;9.740;2023-06-22T07:44:37;19.00;;;6.83;;
4963;SDS011;2497;47.410;9.740;2023-06-22T07:47:04;17.40;;;6.97;;
4963;SDS011;2497;47.410;9.740;2023-06-22T07:49:33;13.00;;;6.50;;
4963;SDS011;2497;47.410;9.740;2023-06-22T07:52:00;17.20;;;7.27;;
4963;SDS011;2497;47.410;9.740;2023-06-22T07:54:29;20.90;;;7.37;;
4963;SDS011;2497;47.410;9.740;2023-06-22T07:57:01;16.40;;;6.23;;
4963;SDS011;2497;47.410;9.740;2023-06-22T07:59:30;18.27;;;6.70;;
4963;SDS011;2497;47.410;9.740;2023-06-22T08:01:57;17.03;;;7.70;;
4963;SDS011;2497;47.410;9.740;2023-06-22T08:04:28;21.20;;;8.57;;
4963;SDS011;2497;47.410;9.740;2023-06-22T08:07:00;18.10;;;6.40;;
4963;SDS011;2497;47.410;9.740;2023-06-22T08:09:29;15.23;;;7.73;;
4963;SDS011;2497;47.410;9.740;2023-06-22T08:11:58;26.60;;;6.77;;
4963;SDS011;2497;47.410;9.740;2023-06-22T08:14:27;17.20;;;7.70;;
4963;SDS011;2497;47.410;9.740;2023-06-22T08:16:56;17.83;;;7.23;;
4963;SDS011;2497;47.410;9.740;2023-06-22T08:19:30;20.10;;;8.37;;
4963;SDS011;2497;47.410;9.740;2023-06-22T08:22:01;13.03;;;7.87;;
4963;SDS011;2497;47.410;9.740;2023-06-22T08:24:30;16.80;;;8.00;;
4963;SDS011;2497;47.410;9.740;2023-06-22T08:26:57;17.03;;;8.00;;
4963;SDS011;2497;47.410;9.740;2023-06-22T08:29:24;21.47;;;7.40;;
4963;SDS011;2497;47.410;9.740;2023-06-22T08:31:51;20.00;;;8.97;;
4963;SDS011;2497;47.410;9.740;2023-06-22T08:34:21;20.80;;;8.40;;
4963;SDS011;2497;47.410;9.740;2023-06-22T08:36:50;16.73;;;7.77;;
4963;SDS011;2497;47.410;9.740;2023-06-22T08:39:19;17.60;;;7.70;;
4963;SDS011;2497;47.410;9.740;2023-06-22T08:41:49;14.07;;;7.43;;
4963;SDS011;2497;47.410;9.740;2023-06-22T08:44:17;22.53;;;7.77;;
4963;SDS011;2497;47.410;9.740;2023-06-22T08:46:48;25.57;;;6.90;;
4963;SDS011;2497;47.410;9.740;2023-06-22T08:49:22;17.03;;;8.10;;
4963;SDS011;2497;47.410;9.740;2023-06-22T08:52:00;16.33;;;8.27;;
4963;SDS011;2497;47.410;9.740;2023-06-22T08:54:30;19.20;;;9.00;;
4963;SDS011;2497;47.410;9.740;2023-06-22T08:56:59;26.77;;;9.47;;
4963;SDS011;2497;47.410;9.740;2023-06-22T08:59:26;18.83;;;8.87;;
4963;SDS011;2497;47.410;9.740;2023-06-22T09:02:01;20.17;;;8.50;;
4963;SDS011;2497;47.410;9.740;2023-06-22T09:04:30;21.30;;;9.73;;
4963;SDS011;2497;47.410;9.740;2023-06-22T09:06:59;21.43;;;8.77;;
4963;SDS011;2497;47.410;9.740;2023-06-22T09:09:31;18.00;;;9.83;;
4963;SDS011;2497;47.410;9.740;2023-06-22T09:11:58;15.73;;;8.67;;
4963;SDS011;2497;47.410;9.740;2023-06-22T09:14:25;14.73;;;8.20;;
4963;SDS011;2497;47.410;9.740;2023-06-22T09:16:57;21.00;;;7.90;;
4963;SDS011;2497;47.410;9.740;2023-06-22T09:19:33;16.70;;;9.30;;
4963;SDS011;2497;47.410;9.740;2023-06-22T09:22:05;19.47;;;9.20;;
4963;SDS011;2497;47.410;9.740;2023-06-22T09:24:38;17.77;;;8.13;;
4963;SDS011;2497;47.410;9.740;2023-06-22T09:27:05;16.23;;;7.30;;
4963;SDS011;2497;47.410;9.740;2023-06-22T09:29:32;19.03;;;7.63;;
4963;SDS011;2497;47.410;9.740;2023-06-22T09:32:13;14.43;;;7.80;;
4963;SDS011;2497;47.410;9.740;2023-06-22T09:34:40;19.50;;;8.83;;
4963;SDS011;2497;47.410;9.740;2023-06-22T09:37:07;17.77;;;7.90;;
4963;SDS011;2497;47.410;9.740;2023-06-22T09:39:35;14.90;;;7.67;;
4963;SDS011;2497;47.410;9.740;2023-06-22T09:42:06;14.40;;;7.00;;
4963;SDS011;2497;47.410;9.740;2023-06-22T09:44:54;15.47;;;7.60;;
4963;SDS011;2497;47.410;9.740;2023-06-22T09:47:29;27.93;;;8.00;;
4963;SDS011;2497;47.410;9.740;2023-06-22T09:50:00;15.43;;;7.80;;
4963;SDS011;2497;47.410;9.740;2023-06-22T09:54:57;16.40;;;7.90;;
4963;SDS011;2497;47.410;9.740;2023-06-22T09:57:26;18.70;;;7.70;;
4963;SDS011;2497;47.410;9.740;2023-06-22T10:00:02;15.90;;;6.97;;
4963;SDS011;2497;47.410;9.740;2023-06-22T10:02:33;13.57;;;7.40;;
4963;SDS011;2497;47.410;9.740;2023-06-22T10:05:01;19.77;;;8.70;;
4963;SDS011;2497;47.410;9.740;2023-06-22T10:07:31;19.47;;;6.90;;
4963;SDS011;2497;47.410;9.740;2023-06-22T10:10:02;21.33;;;7.67;;
4963;SDS011;2497;47.410;9.740;2023-06-22T10:12:32;19.63;;;7.40;;
4963;SDS011;2497;47.410;9.740;2023-06-22T10:15:01;20.27;;;7.00;;
4963;SDS011;2497;47.410;9.740;2023-06-22T10:17:28;13.60;;;6.83;;
4963;SDS011;2497;47.410;9.740;2023-06-22T10:19:55;25.77;;;8.03;;
4963;SDS011;2497;47.410;9.740;2023-06-22T10:22:29;16.57;;;6.80;;
4963;SDS011;2497;47.410;9.740;2023-06-22T10:24:58;23.73;;;8.30;;
4963;SDS011;2497;47.410;9.740;2023-06-22T10:27:26;17.07;;;8.10;;
4963;SDS011;2497;47.410;9.740;2023-06-22T10:30:01;20.37;;;8.07;;
4963;SDS011;2497;47.410;9.740;2023-06-22T10:32:30;15.33;;;7.50;;
4963;SDS011;2497;47.410;9.740;2023-06-22T10:35:00;12.07;;;7.50;;
4963;SDS011;2497;47.410;9.740;2023-06-22T10:37:29;20.10;;;8.13;;
4963;SDS011;2497;47.410;9.740;2023-06-22T10:40:21;14.93;;;7.40;;
4963;SDS011;2497;47.410;9.740;2023-06-22T10:42:53;25.70;;;7.50;;
4963;SDS011;2497;47.410;9.740;2023-06-22T10:45:31;13.57;;;6.40;;
4963;SDS011;2497;47.410;9.740;2023-06-22T10:48:01;16.17;;;6.90;;
4963;SDS011;2497;47.410;9.740;2023-06-22T10:50:30;12.30;;;7.67;;
4963;SDS011;2497;47.410;9.740;2023-06-22T10:52:57;15.67;;;7.43;;
4963;SDS011;2497;47.410;9.740;2023-06-22T10:55:26;17.90;;;7.40;;
4963;SDS011;2497;47.410;9.740;2023-06-22T10:57:58;17.50;;;6.87;;
4963;SDS011;2497;47.410;9.740;2023-06-22T11:00:32;14.80;;;7.33;;
4963;SDS011;2497;47.410;9.740;2023-06-22T11:02:59;10.87;;;5.80;;
4963;SDS011;2497;47.410;9.740;2023-06-22T11:05:28;18.80;;;7.57;;
4963;SDS011;2497;47.410;9.740;2023-06-22T11:08:01;14.00;;;7.20;;
4963;SDS011;2497;47.410;9.740;2023-06-22T11:10:30;10.80;;;6.40;;
4963;SDS011;2497;47.410;9.740;2023-06-22T11:13:06;15.23;;;6.00;;
4963;SDS011;2497;47.410;9.740;2023-06-22T11:15:43;17.67;;;6.97;;
4963;SDS011;2497;47.410;9.740;2023-06-22T11:18:22;16.93;;;8.00;;
4963;SDS011;2497;47.410;9.740;2023-06-22T11:20:51;12.20;;;6.67;;
4963;SDS011;2497;47.410;9.740;2023-06-22T11:23:20;24.10;;;7.13;;
4963;SDS011;2497;47.410;9.740;2023-06-22T11:25:51;15.87;;;6.73;;
4963;SDS011;2497;47.410;9.740;2023-06-22T11:28:20;12.77;;;7.20;;
4963;SDS011;2497;47.410;9.740;2023-06-22T11:30:47;10.97;;;7.10;;
4963;SDS011;2497;47.410;9.740;2023-06-22T11:33:20;12.67;;;6.17;;
4963;SDS011;2497;47.410;9.740;2023-06-22T11:35:47;16.03;;;6.50;;
4963;SDS011;2497;47.410;9.740;2023-06-22T11:38:33;16.23;;;6.77;;
4963;SDS011;2497;47.410;9.740;2023-06-22T11:41:17;20.43;;;7.10;;
4963;SDS011;2497;47.410;9.740;2023-06-22T11:43:50;11.80;;;6.20;;
4963;SDS011;2497;47.410;9.740;2023-06-22T11:46:20;16.63;;;6.93;;
4963;SDS011;2497;47.410;9.740;2023-06-22T11:48:53;12.10;;;6.20;;
4963;SDS011;2497;47.410;9.740;2023-06-22T11:51:25;14.83;;;6.17;;
4963;SDS011;2497;47.410;9.740;2023-06-22T11:54:12;18.17;;;6.33;;
4963;SDS011;2497;47.410;9.740;2023-06-22T11:57:01;12.67;;;5.80;;
4963;SDS011;2497;47.410;9.740;2023-06-22T11:59:32;15.00;;;6.23;;
4963;SDS011;2497;47.410;9.740;2023-06-22T12:02:01;21.87;;;7.13;;
4963;SDS011;2497;47.410;9.740;2023-06-22T12:04:30;23.53;;;7.37;;
4963;SDS011;2497;47.410;9.740;2023-06-22T12:07:00;14.63;;;6.77;;
4963;SDS011;2497;47.410;9.740;2023-06-22T12:09:30;16.30;;;6.63;;
4963;SDS011;2497;47.410;9.740;2023-06-22T12:12:02;27.20;;;6.07;;
4963;SDS011;2497;47.410;9.740;2023-06-22T12:14:30;12.27;;;6.33;;
4963;SDS011;2497;47.410;9.740;2023-06-22T12:16:59;13.97;;;6.73;;
4963;SDS011;2497;47.410;9.740;2023-06-22T12:19:26;12.87;;;6.40;;
4963;SDS011;2497;47.410;9.740;2023-06-22T12:22:03;16.90;;;6.90;;
4963;SDS011;2497;47.410;9.740;2023-06-22T12:24:30;13.20;;;6.53;;
4963;SDS011;2497;47.410;9.740;2023-06-22T12:26:57;14.30;;;6.60;;
4963;SDS011;2497;47.410;9.740;2023-06-22T12:29:31;17.90;;;6.60;;
4963;SDS011;2497;47.410;9.740;2023-06-22T12:31:58;15.43;;;6.20;;
4963;SDS011;2497;47.410;9.740;2023-06-22T12:34:25;15.77;;;6.50;;
4963;SDS011;2497;47.410;9.740;2023-06-22T12:36:52;12.13;;;6.90;;
4963;SDS011;2497;47.410;9.740;2023-06-22T12:39:20;18.17;;;7.57;;
4963;SDS011;2497;47.410;9.740;2023-06-22T12:41:53;20.73;;;6.77;;
4963;SDS011;2497;47.410;9.740;2023-06-22T12:44:30;14.27;;;5.73;;
4963;SDS011;2497;47.410;9.740;2023-06-22T12:47:08;22.17;;;7.37;;
4963;SDS011;2497;47.410;9.740;2023-06-22T12:49:41;21.97;;;6.77;;
4963;SDS011;2497;47.410;9.740;2023-06-22T12:52:14;14.13;;;6.97;;
4963;SDS011;2497;47.410;9.740;2023-06-22T12:54:41;23.80;;;7.87;;
4963;SDS011;2497;47.410;9.740;2023-06-22T12:57:08;19.97;;;6.17;;
4963;SDS011;2497;47.410;9.740;2023-06-22T12:59:50;16.20;;;6.10;;
4963;SDS011;2497;47.410;9.740;2023-06-22T13:02:21;10.60;;;5.50;;
4963;SDS011;2497;47.410;9.740;2023-06-22T13:04:48;14.83;;;6.07;;
4963;SDS011;2497;47.410;9.740;2023-06-22T13:07:16;14.63;;;5.57;;
4963;SDS011;2497;47.410;9.740;2023-06-22T13:09:52;15.87;;;6.10;;
4963;SDS011;2497;47.410;9.740;2023-06-22T13:12:19;13.80;;;5.87;;
4963;SDS011;2497;47.410;9.740;2023-06-22T13:14:52;15.27;;;6.37;;
4963;SDS011;2497;47.410;9.740;2023-06-22T13:17:21;17.20;;;5.50;;
4963;SDS011;2497;47.410;9.740;2023-06-22T13:19:52;14.90;;;6.23;;
4963;SDS011;2497;47.410;9.740;2023-06-22T13:22:28;28.57;;;6.40;;
4963;SDS011;2497;47.410;9.740;2023-06-22T13:25:02;12.83;;;5.87;;
4963;SDS011;2497;47.410;9.740;2023-06-22T13:27:32;14.87;;;6.10;;
4963;SDS011;2497;47.410;9.740;2023-06-22T13:30:01;13.90;;;5.23;;
4963;SDS011;2497;47.410;9.740;2023-06-22T13:32:30;19.77;;;6.40;;
4963;SDS011;2497;47.410;9.740;2023-06-22T13:35:07;20.73;;;6.63;;
4963;SDS011;2497;47.410;9.740;2023-06-22T13:37:42;10.60;;;5.23;;
4963;SDS011;2497;47.410;9.740;2023-06-22T13:40:09;12.03;;;5.07;;
4963;SDS011;2497;47.410;9.740;2023-06-22T13:42:42;12.33;;;5.90;;
4963;SDS011;2497;47.410;9.740;2023-06-22T13:45:11;14.60;;;5.93;;
4963;SDS011;2497;47.410;9.740;2023-06-22T13:47:44;13.30;;;6.20;;
4963;SDS011;2497;47.410;9.740;2023-06-22T13:50:16;12.60;;;6.10;;
4963;SDS011;2497;47.410;9.740;2023-06-22T13:52:43;12.13;;;6.63;;
4963;SDS011;2497;47.410;9.740;2023-06-22T13:55:12;17.47;;;7.40;;
4963;SDS011;2497;47.410;9.740;2023-06-22T13:57:42;12.57;;;6.20;;
4963;SDS011;2497;47.410;9.740;2023-06-22T14:00:12;15.50;;;6.60;;
4963;SDS011;2497;47.410;9.740;2023-06-22T14:02:39;12.17;;;6.77;;
4963;SDS011;2497;47.410;9.740;2023-06-22T14:05:11;12.17;;;7.30;;
4963;SDS011;2497;47.410;9.740;2023-06-22T14:07:40;14.73;;;7.93;;
4963;SDS011;2497;47.410;9.740;2023-06-22T14:10:08;13.77;;;7.13;;
4963;SDS011;2497;47.410;9.740;2023-06-22T14:12:35;13.93;;;6.20;;
4963;SDS011;2497;47.410;9.740;2023-06-22T14:15:03;23.20;;;7.13;;
4963;SDS011;2497;47.410;9.740;2023-06-22T14:17:32;11.40;;;5.70;;
4963;SDS011;2497;47.410;9.740;2023-06-22T14:19:59;17.43;;;7.00;;
4963;SDS011;2497;47.410;9.740;2023-06-22T14:22:28;11.93;;;5.87;;
4963;SDS011;2497;47.410;9.740;2023-06-22T14:25:04;19.27;;;6.23;;
4963;SDS011;2497;47.410;9.740;2023-06-22T14:27:32;14.67;;;7.20;;
4963;SDS011;2497;47.410;9.740;2023-06-22T14:29:59;12.20;;;6.50;;
4963;SDS011;2497;47.410;9.740;2023-06-22T14:32:33;16.37;;;5.80;;
4963;SDS011;2497;47.410;9.740;2023-06-22T14:35:01;13.07;;;6.57;;
4963;SDS011;2497;47.410;9.740;2023-06-22T14:37:29;15.27;;;5.80;;
4963;SDS011;2497;47.410;9.740;2023-06-22T14:39:56;15.33;;;6.27;;
4963;SDS011;2497;47.410;9.740;2023-06-22T14:42:31;15.47;;;5.47;;
4963;SDS011;2497;47.410;9.740;2023-06-22T14:45:04;14.50;;;5.60;;
4963;SDS011;2497;47.410;9.740;2023-06-22T14:47:43;16.20;;;5.00;;
4963;SDS011;2497;47.410;9.740;2023-06-22T14:50:12;9.63;;;5.10;;
4963;SDS011;2497;47.410;9.740;2023-06-22T14:52:43;8.47;;;4.50;;
4963;SDS011;2497;47.410;9.740;2023-06-22T14:55:13;12.50;;;5.20;;
4963;SDS011;2497;47.410;9.740;2023-06-22T14:57:51;18.27;;;5.13;;
4963;SDS011;2497;47.410;9.740;2023-06-22T15:00:20;15.47;;;6.07;;
4963;SDS011;2497;47.410;9.740;2023-06-22T15:02:51;23.63;;;6.60;;
4963;SDS011;2497;47.410;9.740;2023-06-22T15:05:24;15.83;;;6.20;;
4963;SDS011;2497;47.410;9.740;2023-06-22T15:07:57;16.07;;;6.83;;
4963;SDS011;2497;47.410;9.740;2023-06-22T15:10:29;18.00;;;6.70;;
4963;SDS011;2497;47.410;9.740;2023-06-22T15:12:56;16.30;;;6.87;;
4963;SDS011;2497;47.410;9.740;2023-06-22T15:15:34;15.93;;;7.17;;
4963;SDS011;2497;47.410;9.740;2023-06-22T15:18:03;16.43;;;6.43;;
4963;SDS011;2497;47.410;9.740;2023-06-22T15:20:48;17.97;;;7.90;;
4963;SDS011;2497;47.410;9.740;2023-06-22T15:23:20;15.23;;;6.13;;
4963;SDS011;2497;47.410;9.740;2023-06-22T15:25:47;15.93;;;7.13;;
4963;SDS011;2497;47.410;9.740;2023-06-22T15:28:18;23.07;;;7.73;;
4963;SDS011;2497;47.410;9.740;2023-06-22T15:30:48;19.10;;;7.03;;